sensor_id;sensor_type;location;lat;lon;timestamp;temperature;humidity
27978;DHT22;15314;49.248;6.968;2023-04-05T00:00:17;3.70;81.60
27978;DHT22;15314;49.248;6.968;2023-04-05T00:01:18;3.60;80.80
27978;DHT22;15314;49.248;6.968;2023-04-05T00:02:19;3.60;80.80
27978;DHT22;15314;49.248;6.968;2023-04-05T00:03:20;3.70;80.80
27978;DHT22;15314;49.248;6.968;2023-04-05T00:04:21;3.70;81.40
27978;DHT22;15314;49.248;6.968;2023-04-05T00:05:23;3.70;81.40
27978;DHT22;15314;49.248;6.968;2023-04-05T00:06:30;3.60;81.90
27978;DHT22;15314;49.248;6.968;2023-04-05T00:07:31;3.60;81.50
27978;DHT22;15314;49.248;6.968;2023-04-05T00:08:33;3.60;81.40
27978;DHT22;15314;49.248;6.968;2023-04-05T00:09:34;3.60;81.00
27978;DHT22;15314;49.248;6.968;2023-04-05T00:10:35;3.60;80.30
27978;DHT22;15314;49.248;6.968;2023-04-05T00:11:37;3.60;80.30
27978;DHT22;15314;49.248;6.968;2023-04-05T00:12:37;3.60;80.50
27978;DHT22;15314;49.248;6.968;2023-04-05T00:13:38;3.50;80.30
27978;DHT22;15314;49.248;6.968;2023-04-05T00:14:38;3.50;81.30
27978;DHT22;15314;49.248;6.968;2023-04-05T00:15:39;3.50;81.10
27978;DHT22;15314;49.248;6.968;2023-04-05T00:16:40;3.50;80.70
27978;DHT22;15314;49.248;6.968;2023-04-05T00:17:41;3.40;80.70
27978;DHT22;15314;49.248;6.968;2023-04-05T00:18:43;3.40;80.60
27978;DHT22;15314;49.248;6.968;2023-04-05T00:19:50;3.50;80.60
27978;DHT22;15314;49.248;6.968;2023-04-05T00:20:56;3.30;80.80
27978;DHT22;15314;49.248;6.968;2023-04-05T00:21:57;3.40;81.10
27978;DHT22;15314;49.248;6.968;2023-04-05T00:22:58;3.30;81.50
27978;DHT22;15314;49.248;6.968;2023-04-05T00:23:59;3.40;81.40
27978;DHT22;15314;49.248;6.968;2023-04-05T00:25:00;3.30;81.50
27978;DHT22;15314;49.248;6.968;2023-04-05T00:26:01;3.30;81.50
27978;DHT22;15314;49.248;6.968;2023-04-05T00:27:01;3.30;81.30
27978;DHT22;15314;49.248;6.968;2023-04-05T00:28:02;3.30;81.30
27978;DHT22;15314;49.248;6.968;2023-04-05T00:29:03;3.30;81.50
27978;DHT22;15314;49.248;6.968;2023-04-05T00:30:04;3.30;81.70
27978;DHT22;15314;49.248;6.968;2023-04-05T00:31:05;3.30;81.50
27978;DHT22;15314;49.248;6.968;2023-04-05T00:32:05;3.30;81.70
27978;DHT22;15314;49.248;6.968;2023-04-05T00:33:06;3.30;81.60
27978;DHT22;15314;49.248;6.968;2023-04-05T00:34:06;3.30;81.30
27978;DHT22;15314;49.248;6.968;2023-04-05T00:35:08;3.20;81.30
27978;DHT22;15314;49.248;6.968;2023-04-05T00:37:10;3.10;82.10
27978;DHT22;15314;49.248;6.968;2023-04-05T00:38:11;3.10;82.60
27978;DHT22;15314;49.248;6.968;2023-04-05T00:39:12;3.00;82.70
27978;DHT22;15314;49.248;6.968;2023-04-05T00:40:12;3.00;82.90
27978;DHT22;15314;49.248;6.968;2023-04-05T00:41:13;3.00;82.80
27978;DHT22;15314;49.248;6.968;2023-04-05T00:42:14;3.00;82.50
27978;DHT22;15314;49.248;6.968;2023-04-05T00:43:14;3.00;82.40
27978;DHT22;15314;49.248;6.968;2023-04-05T00:44:15;3.00;82.00
27978;DHT22;15314;49.248;6.968;2023-04-05T00:45:17;3.00;81.90
27978;DHT22;15314;49.248;6.968;2023-04-05T00:46:17;3.00;81.90
27978;DHT22;15314;49.248;6.968;2023-04-05T00:47:18;2.90;82.20
27978;DHT22;15314;49.248;6.968;2023-04-05T00:48:19;2.80;82.40
27978;DHT22;15314;49.248;6.968;2023-04-05T00:49:20;2.80;82.80
27978;DHT22;15314;49.248;6.968;2023-04-05T00:50:21;2.90;82.50
27978;DHT22;15314;49.248;6.968;2023-04-05T00:51:22;2.80;83.10
27978;DHT22;15314;49.248;6.968;2023-04-05T00:52:23;2.80;83.10
27978;DHT22;15314;49.248;6.968;2023-04-05T00:53:27;2.80;83.60
27978;DHT22;15314;49.248;6.968;2023-04-05T00:54:28;2.80;83.30
27978;DHT22;15314;49.248;6.968;2023-04-05T00:55:29;2.70;83.00
27978;DHT22;15314;49.248;6.968;2023-04-05T00:56:33;2.70;83.00
27978;DHT22;15314;49.248;6.968;2023-04-05T00:57:34;2.80;83.00
27978;DHT22;15314;49.248;6.968;2023-04-05T00:58:38;2.80;82.80
27978;DHT22;15314;49.248;6.968;2023-04-05T00:59:41;2.70;83.60
27978;DHT22;15314;49.248;6.968;2023-04-05T01:03:05;2.50;85.40
27978;DHT22;15314;49.248;6.968;2023-04-05T01:04:06;2.50;85.60
27978;DHT22;15314;49.248;6.968;2023-04-05T01:05:24;2.50;85.50
27978;DHT22;15314;49.248;6.968;2023-04-05T01:06:43;2.50;85.30
27978;DHT22;15314;49.248;6.968;2023-04-05T01:07:58;2.40;85.60
27978;DHT22;15314;49.248;6.968;2023-04-05T01:10:09;2.40;85.80
27978;DHT22;15314;49.248;6.968;2023-04-05T01:11:13;2.40;86.00
27978;DHT22;15314;49.248;6.968;2023-04-05T01:12:20;2.50;85.40
27978;DHT22;15314;49.248;6.968;2023-04-05T01:13:24;2.50;85.00
27978;DHT22;15314;49.248;6.968;2023-04-05T01:14:24;2.50;85.20
27978;DHT22;15314;49.248;6.968;2023-04-05T01:15:25;2.50;84.80
27978;DHT22;15314;49.248;6.968;2023-04-05T01:16:26;2.50;85.20
27978;DHT22;15314;49.248;6.968;2023-04-05T01:17:28;2.50;85.40
27978;DHT22;15314;49.248;6.968;2023-04-05T01:18:29;2.40;85.50
27978;DHT22;15314;49.248;6.968;2023-04-05T01:19:30;2.40;85.90
27978;DHT22;15314;49.248;6.968;2023-04-05T01:20:37;2.30;85.80
27978;DHT22;15314;49.248;6.968;2023-04-05T01:27:21;2.30;86.30
27978;DHT22;15314;49.248;6.968;2023-04-05T01:30:18;2.30;87.00
27978;DHT22;15314;49.248;6.968;2023-04-05T01:34:35;2.20;87.60
27978;DHT22;15314;49.248;6.968;2023-04-05T01:36:07;2.20;87.70
27978;DHT22;15314;49.248;6.968;2023-04-05T01:37:12;2.20;88.70
27978;DHT22;15314;49.248;6.968;2023-04-05T01:38:17;2.20;89.40
27978;DHT22;15314;49.248;6.968;2023-04-05T01:39:22;2.10;88.80
27978;DHT22;15314;49.248;6.968;2023-04-05T01:40:23;2.00;88.90
27978;DHT22;15314;49.248;6.968;2023-04-05T01:41:25;2.10;88.60
27978;DHT22;15314;49.248;6.968;2023-04-05T01:42:26;2.00;88.30
27978;DHT22;15314;49.248;6.968;2023-04-05T01:43:27;2.00;88.40
27978;DHT22;15314;49.248;6.968;2023-04-05T01:44:28;2.00;88.00
27978;DHT22;15314;49.248;6.968;2023-04-05T01:45:29;2.10;87.70
27978;DHT22;15314;49.248;6.968;2023-04-05T01:46:30;2.10;88.00
27978;DHT22;15314;49.248;6.968;2023-04-05T01:47:31;2.20;87.60
27978;DHT22;15314;49.248;6.968;2023-04-05T01:48:32;2.10;87.70
27978;DHT22;15314;49.248;6.968;2023-04-05T01:49:32;2.10;87.90
27978;DHT22;15314;49.248;6.968;2023-04-05T01:50:33;2.00;88.30
27978;DHT22;15314;49.248;6.968;2023-04-05T01:51:34;2.00;88.40
27978;DHT22;15314;49.248;6.968;2023-04-05T01:52:34;2.10;88.30
27978;DHT22;15314;49.248;6.968;2023-04-05T01:53:35;2.00;88.70
27978;DHT22;15314;49.248;6.968;2023-04-05T01:54:35;2.00;88.90
27978;DHT22;15314;49.248;6.968;2023-04-05T01:55:36;2.00;89.30
27978;DHT22;15314;49.248;6.968;2023-04-05T01:56:37;2.10;90.00
27978;DHT22;15314;49.248;6.968;2023-04-05T01:57:37;1.90;90.00
27978;DHT22;15314;49.248;6.968;2023-04-05T01:58:38;1.90;90.10
27978;DHT22;15314;49.248;6.968;2023-04-05T01:59:39;1.80;90.50
27978;DHT22;15314;49.248;6.968;2023-04-05T02:00:39;1.80;90.40
27978;DHT22;15314;49.248;6.968;2023-04-05T02:01:40;1.80;90.60
27978;DHT22;15314;49.248;6.968;2023-04-05T02:02:41;1.80;90.40
27978;DHT22;15314;49.248;6.968;2023-04-05T02:03:41;1.90;90.60
27978;DHT22;15314;49.248;6.968;2023-04-05T02:04:42;1.80;90.40
27978;DHT22;15314;49.248;6.968;2023-04-05T02:05:43;1.80;90.00
27978;DHT22;15314;49.248;6.968;2023-04-05T02:06:43;1.80;90.20
27978;DHT22;15314;49.248;6.968;2023-04-05T02:07:44;1.80;90.20
27978;DHT22;15314;49.248;6.968;2023-04-05T02:08:45;1.80;90.60
27978;DHT22;15314;49.248;6.968;2023-04-05T02:09:45;1.90;90.50
27978;DHT22;15314;49.248;6.968;2023-04-05T02:10:46;1.80;90.30
27978;DHT22;15314;49.248;6.968;2023-04-05T02:11:47;1.80;90.20
27978;DHT22;15314;49.248;6.968;2023-04-05T02:12:47;1.80;90.30
27978;DHT22;15314;49.248;6.968;2023-04-05T02:13:48;1.80;90.10
27978;DHT22;15314;49.248;6.968;2023-04-05T02:14:49;1.80;90.10
27978;DHT22;15314;49.248;6.968;2023-04-05T02:15:51;1.80;90.30
27978;DHT22;15314;49.248;6.968;2023-04-05T02:16:52;1.80;90.40
27978;DHT22;15314;49.248;6.968;2023-04-05T02:17:55;1.80;90.30
27978;DHT22;15314;49.248;6.968;2023-04-05T02:18:56;1.80;90.20
27978;DHT22;15314;49.248;6.968;2023-04-05T02:19:59;1.80;90.00
27978;DHT22;15314;49.248;6.968;2023-04-05T02:21:06;1.80;90.00
27978;DHT22;15314;49.248;6.968;2023-04-05T02:22:07;1.80;90.10
27978;DHT22;15314;49.248;6.968;2023-04-05T02:23:08;1.80;90.20
27978;DHT22;15314;49.248;6.968;2023-04-05T02:24:08;1.80;90.20
27978;DHT22;15314;49.248;6.968;2023-04-05T02:25:09;1.80;90.00
27978;DHT22;15314;49.248;6.968;2023-04-05T02:26:10;1.80;89.60
27978;DHT22;15314;49.248;6.968;2023-04-05T02:27:11;1.80;90.10
27978;DHT22;15314;49.248;6.968;2023-04-05T02:28:12;1.80;90.00
27978;DHT22;15314;49.248;6.968;2023-04-05T02:29:12;1.70;90.00
27978;DHT22;15314;49.248;6.968;2023-04-05T02:30:14;1.80;90.10
27978;DHT22;15314;49.248;6.968;2023-04-05T02:31:15;1.70;90.20
27978;DHT22;15314;49.248;6.968;2023-04-05T02:32:15;1.80;90.20
27978;DHT22;15314;49.248;6.968;2023-04-05T02:33:16;1.70;90.10
27978;DHT22;15314;49.248;6.968;2023-04-05T02:34:17;1.70;90.50
27978;DHT22;15314;49.248;6.968;2023-04-05T02:35:17;1.70;90.40
27978;DHT22;15314;49.248;6.968;2023-04-05T02:36:20;1.70;90.20
27978;DHT22;15314;49.248;6.968;2023-04-05T02:37:21;1.70;90.30
27978;DHT22;15314;49.248;6.968;2023-04-05T02:38:22;1.80;90.50
27978;DHT22;15314;49.248;6.968;2023-04-05T02:39:22;1.70;90.60
27978;DHT22;15314;49.248;6.968;2023-04-05T02:40:23;1.70;90.70
27978;DHT22;15314;49.248;6.968;2023-04-05T02:41:24;1.60;90.70
27978;DHT22;15314;49.248;6.968;2023-04-05T02:42:25;1.70;90.80
27978;DHT22;15314;49.248;6.968;2023-04-05T02:43:26;1.70;91.00
27978;DHT22;15314;49.248;6.968;2023-04-05T02:44:29;1.70;90.80
27978;DHT22;15314;49.248;6.968;2023-04-05T02:45:30;1.60;90.80
27978;DHT22;15314;49.248;6.968;2023-04-05T02:46:30;1.60;91.00
27978;DHT22;15314;49.248;6.968;2023-04-05T02:47:31;1.60;91.10
27978;DHT22;15314;49.248;6.968;2023-04-05T02:48:32;1.60;91.10
27978;DHT22;15314;49.248;6.968;2023-04-05T02:49:32;1.60;91.00
27978;DHT22;15314;49.248;6.968;2023-04-05T02:50:33;1.60;90.90
27978;DHT22;15314;49.248;6.968;2023-04-05T02:51:34;1.70;90.90
27978;DHT22;15314;49.248;6.968;2023-04-05T02:52:34;1.70;90.70
27978;DHT22;15314;49.248;6.968;2023-04-05T02:53:36;1.70;90.60
27978;DHT22;15314;49.248;6.968;2023-04-05T02:54:37;1.80;90.60
27978;DHT22;15314;49.248;6.968;2023-04-05T02:55:38;1.80;90.50
27978;DHT22;15314;49.248;6.968;2023-04-05T02:56:41;1.70;90.60
27978;DHT22;15314;49.248;6.968;2023-04-05T02:57:42;1.70;90.60
27978;DHT22;15314;49.248;6.968;2023-04-05T02:58:44;1.70;90.70
27978;DHT22;15314;49.248;6.968;2023-04-05T02:59:45;1.70;90.80
27978;DHT22;15314;49.248;6.968;2023-04-05T03:00:47;1.70;90.90
27978;DHT22;15314;49.248;6.968;2023-04-05T03:01:52;1.60;90.90
27978;DHT22;15314;49.248;6.968;2023-04-05T03:02:52;1.70;90.80
27978;DHT22;15314;49.248;6.968;2023-04-05T03:03:53;1.70;90.50
27978;DHT22;15314;49.248;6.968;2023-04-05T03:04:54;1.70;90.50
27978;DHT22;15314;49.248;6.968;2023-04-05T03:05:59;1.70;91.10
27978;DHT22;15314;49.248;6.968;2023-04-05T03:07:01;1.70;91.10
27978;DHT22;15314;49.248;6.968;2023-04-05T03:08:03;1.60;91.20
27978;DHT22;15314;49.248;6.968;2023-04-05T03:09:04;1.60;91.20
27978;DHT22;15314;49.248;6.968;2023-04-05T03:10:05;1.60;91.30
27978;DHT22;15314;49.248;6.968;2023-04-05T03:11:06;1.60;91.10
27978;DHT22;15314;49.248;6.968;2023-04-05T03:12:06;1.60;90.90
27978;DHT22;15314;49.248;6.968;2023-04-05T03:13:07;1.50;91.10
27978;DHT22;15314;49.248;6.968;2023-04-05T03:14:08;1.50;90.90
27978;DHT22;15314;49.248;6.968;2023-04-05T03:15:09;1.50;90.80
27978;DHT22;15314;49.248;6.968;2023-04-05T03:16:09;1.50;90.90
27978;DHT22;15314;49.248;6.968;2023-04-05T03:17:11;1.50;90.80
27978;DHT22;15314;49.248;6.968;2023-04-05T03:18:11;1.60;90.80
27978;DHT22;15314;49.248;6.968;2023-04-05T03:19:12;1.60;90.70
27978;DHT22;15314;49.248;6.968;2023-04-05T03:20:15;1.60;90.70
27978;DHT22;15314;49.248;6.968;2023-04-05T03:21:16;1.60;90.90
27978;DHT22;15314;49.248;6.968;2023-04-05T03:22:17;1.70;90.80
27978;DHT22;15314;49.248;6.968;2023-04-05T03:23:18;1.70;90.90
27978;DHT22;15314;49.248;6.968;2023-04-05T03:24:18;1.60;90.90
27978;DHT22;15314;49.248;6.968;2023-04-05T03:25:19;1.60;90.70
27978;DHT22;15314;49.248;6.968;2023-04-05T03:26:20;1.60;90.80
27978;DHT22;15314;49.248;6.968;2023-04-05T03:27:21;1.60;90.90
27978;DHT22;15314;49.248;6.968;2023-04-05T03:28:22;1.60;90.70
27978;DHT22;15314;49.248;6.968;2023-04-05T03:29:23;1.60;90.70
27978;DHT22;15314;49.248;6.968;2023-04-05T03:30:23;1.60;90.60
27978;DHT22;15314;49.248;6.968;2023-04-05T03:31:24;1.60;90.80
27978;DHT22;15314;49.248;6.968;2023-04-05T03:32:25;1.50;90.70
27978;DHT22;15314;49.248;6.968;2023-04-05T03:33:26;1.60;90.80
27978;DHT22;15314;49.248;6.968;2023-04-05T03:34:26;1.60;90.80
27978;DHT22;15314;49.248;6.968;2023-04-05T03:35:28;1.60;90.80
27978;DHT22;15314;49.248;6.968;2023-04-05T03:36:29;1.60;90.70
27978;DHT22;15314;49.248;6.968;2023-04-05T03:37:50;1.60;91.00
27978;DHT22;15314;49.248;6.968;2023-04-05T03:38:50;1.50;91.30
27978;DHT22;15314;49.248;6.968;2023-04-05T03:39:52;1.40;91.20
27978;DHT22;15314;49.248;6.968;2023-04-05T03:40:52;1.50;91.10
27978;DHT22;15314;49.248;6.968;2023-04-05T03:41:53;1.50;91.20
27978;DHT22;15314;49.248;6.968;2023-04-05T03:42:54;1.50;91.30
27978;DHT22;15314;49.248;6.968;2023-04-05T03:43:55;1.50;91.50
27978;DHT22;15314;49.248;6.968;2023-04-05T03:44:55;1.50;91.30
27978;DHT22;15314;49.248;6.968;2023-04-05T03:45:56;1.40;91.10
27978;DHT22;15314;49.248;6.968;2023-04-05T03:46:57;1.60;91.30
27978;DHT22;15314;49.248;6.968;2023-04-05T03:47:57;1.40;91.20
27978;DHT22;15314;49.248;6.968;2023-04-05T03:48:59;1.40;91.30
27978;DHT22;15314;49.248;6.968;2023-04-05T03:50:00;1.40;91.40
27978;DHT22;15314;49.248;6.968;2023-04-05T03:51:02;1.40;91.30
27978;DHT22;15314;49.248;6.968;2023-04-05T03:52:03;1.40;91.30
27978;DHT22;15314;49.248;6.968;2023-04-05T03:53:03;1.40;91.30
27978;DHT22;15314;49.248;6.968;2023-04-05T03:54:04;1.50;91.10
27978;DHT22;15314;49.248;6.968;2023-04-05T03:55:05;1.50;91.30
27978;DHT22;15314;49.248;6.968;2023-04-05T03:56:06;1.40;91.40
27978;DHT22;15314;49.248;6.968;2023-04-05T03:57:07;1.40;91.40
27978;DHT22;15314;49.248;6.968;2023-04-05T03:58:07;1.40;91.50
27978;DHT22;15314;49.248;6.968;2023-04-05T03:59:08;1.40;91.60
27978;DHT22;15314;49.248;6.968;2023-04-05T04:00:09;1.40;91.60
27978;DHT22;15314;49.248;6.968;2023-04-05T04:01:15;1.30;91.80
27978;DHT22;15314;49.248;6.968;2023-04-05T04:02:16;1.30;91.90
27978;DHT22;15314;49.248;6.968;2023-04-05T04:03:17;1.30;91.80
27978;DHT22;15314;49.248;6.968;2023-04-05T04:04:17;1.30;91.80
27978;DHT22;15314;49.248;6.968;2023-04-05T04:05:19;1.30;91.70
27978;DHT22;15314;49.248;6.968;2023-04-05T04:06:21;1.30;91.70
27978;DHT22;15314;49.248;6.968;2023-04-05T04:07:22;1.30;91.50
27978;DHT22;15314;49.248;6.968;2023-04-05T04:08:22;1.40;91.60
27978;DHT22;15314;49.248;6.968;2023-04-05T04:09:23;1.40;91.60
27978;DHT22;15314;49.248;6.968;2023-04-05T04:10:24;1.30;91.60
27978;DHT22;15314;49.248;6.968;2023-04-05T04:11:25;1.40;91.60
27978;DHT22;15314;49.248;6.968;2023-04-05T04:12:25;1.30;91.70
27978;DHT22;15314;49.248;6.968;2023-04-05T04:13:26;1.20;91.90
27978;DHT22;15314;49.248;6.968;2023-04-05T04:14:27;1.30;92.10
27978;DHT22;15314;49.248;6.968;2023-04-05T04:15:27;1.20;92.00
27978;DHT22;15314;49.248;6.968;2023-04-05T04:16:28;1.20;91.90
27978;DHT22;15314;49.248;6.968;2023-04-05T04:17:31;1.20;91.90
27978;DHT22;15314;49.248;6.968;2023-04-05T04:18:32;1.20;92.10
27978;DHT22;15314;49.248;6.968;2023-04-05T04:19:32;1.10;92.30
27978;DHT22;15314;49.248;6.968;2023-04-05T04:20:33;1.10;92.60
27978;DHT22;15314;49.248;6.968;2023-04-05T04:21:34;1.10;92.30
27978;DHT22;15314;49.248;6.968;2023-04-05T04:22:35;1.10;92.60
27978;DHT22;15314;49.248;6.968;2023-04-05T04:23:38;1.10;92.60
27978;DHT22;15314;49.248;6.968;2023-04-05T04:24:38;1.10;92.30
27978;DHT22;15314;49.248;6.968;2023-04-05T04:25:40;1.10;92.20
27978;DHT22;15314;49.248;6.968;2023-04-05T04:26:46;1.10;92.20
27978;DHT22;15314;49.248;6.968;2023-04-05T04:27:47;1.10;92.10
27978;DHT22;15314;49.248;6.968;2023-04-05T04:28:49;1.10;92.10
27978;DHT22;15314;49.248;6.968;2023-04-05T04:29:50;1.10;92.20
27978;DHT22;15314;49.248;6.968;2023-04-05T04:31:00;1.10;92.80
27978;DHT22;15314;49.248;6.968;2023-04-05T04:32:04;1.00;92.60
27978;DHT22;15314;49.248;6.968;2023-04-05T04:33:06;1.00;92.30
27978;DHT22;15314;49.248;6.968;2023-04-05T04:34:07;1.00;92.30
27978;DHT22;15314;49.248;6.968;2023-04-05T04:35:10;1.10;92.40
27978;DHT22;15314;49.248;6.968;2023-04-05T04:36:10;1.00;92.30
27978;DHT22;15314;49.248;6.968;2023-04-05T04:37:14;1.10;92.30
27978;DHT22;15314;49.248;6.968;2023-04-05T04:38:18;1.10;92.60
27978;DHT22;15314;49.248;6.968;2023-04-05T04:39:19;1.10;92.50
27978;DHT22;15314;49.248;6.968;2023-04-05T04:40:34;1.20;92.60
27978;DHT22;15314;49.248;6.968;2023-04-05T04:41:47;1.10;92.50
27978;DHT22;15314;49.248;6.968;2023-04-05T04:42:48;1.10;92.30
27978;DHT22;15314;49.248;6.968;2023-04-05T04:43:49;1.10;92.30
27978;DHT22;15314;49.248;6.968;2023-04-05T04:44:49;1.10;92.30
27978;DHT22;15314;49.248;6.968;2023-04-05T04:45:53;1.10;92.40
27978;DHT22;15314;49.248;6.968;2023-04-05T04:46:54;1.10;92.50
27978;DHT22;15314;49.248;6.968;2023-04-05T04:47:55;1.10;92.50
27978;DHT22;15314;49.248;6.968;2023-04-05T04:48:56;1.10;92.40
27978;DHT22;15314;49.248;6.968;2023-04-05T04:49:56;1.10;92.40
27978;DHT22;15314;49.248;6.968;2023-04-05T04:51:01;1.10;92.40
27978;DHT22;15314;49.248;6.968;2023-04-05T04:52:02;1.10;92.30
27978;DHT22;15314;49.248;6.968;2023-04-05T04:53:03;1.10;92.20
27978;DHT22;15314;49.248;6.968;2023-04-05T04:54:04;1.10;92.20
27978;DHT22;15314;49.248;6.968;2023-04-05T04:55:09;1.10;92.10
27978;DHT22;15314;49.248;6.968;2023-04-05T04:56:13;1.10;92.10
27978;DHT22;15314;49.248;6.968;2023-04-05T04:57:14;1.10;92.20
27978;DHT22;15314;49.248;6.968;2023-04-05T04:58:15;1.10;92.30
27978;DHT22;15314;49.248;6.968;2023-04-05T04:59:16;1.10;92.40
27978;DHT22;15314;49.248;6.968;2023-04-05T05:00:17;1.10;92.60
27978;DHT22;15314;49.248;6.968;2023-04-05T05:01:18;1.10;92.50
27978;DHT22;15314;49.248;6.968;2023-04-05T05:02:25;1.00;92.50
27978;DHT22;15314;49.248;6.968;2023-04-05T05:03:26;1.00;92.70
27978;DHT22;15314;49.248;6.968;2023-04-05T05:04:27;1.00;92.70
27978;DHT22;15314;49.248;6.968;2023-04-05T05:05:27;1.00;92.70
27978;DHT22;15314;49.248;6.968;2023-04-05T05:06:28;1.00;92.60
27978;DHT22;15314;49.248;6.968;2023-04-05T05:07:29;1.10;92.70
27978;DHT22;15314;49.248;6.968;2023-04-05T05:08:30;1.10;92.60
27978;DHT22;15314;49.248;6.968;2023-04-05T05:09:31;1.10;92.40
27978;DHT22;15314;49.248;6.968;2023-04-05T05:10:32;1.20;92.20
27978;DHT22;15314;49.248;6.968;2023-04-05T05:11:32;1.10;92.00
27978;DHT22;15314;49.248;6.968;2023-04-05T05:12:33;1.10;92.00
27978;DHT22;15314;49.248;6.968;2023-04-05T05:13:34;1.20;92.10
27978;DHT22;15314;49.248;6.968;2023-04-05T05:14:35;1.20;91.90
27978;DHT22;15314;49.248;6.968;2023-04-05T05:15:38;1.20;91.80
27978;DHT22;15314;49.248;6.968;2023-04-05T05:16:40;1.20;92.70
27978;DHT22;15314;49.248;6.968;2023-04-05T05:17:41;1.40;96.40
27978;DHT22;15314;49.248;6.968;2023-04-05T05:18:42;1.60;97.10
27978;DHT22;15314;49.248;6.968;2023-04-05T05:19:44;1.60;96.10
27978;DHT22;15314;49.248;6.968;2023-04-05T05:20:49;1.60;95.90
27978;DHT22;15314;49.248;6.968;2023-04-05T05:21:49;1.70;96.10
27978;DHT22;15314;49.248;6.968;2023-04-05T05:22:52;1.90;96.10
27978;DHT22;15314;49.248;6.968;2023-04-05T05:23:52;1.90;95.50
27978;DHT22;15314;49.248;6.968;2023-04-05T05:24:53;1.90;94.40
27978;DHT22;15314;49.248;6.968;2023-04-05T05:25:58;1.80;94.90
27978;DHT22;15314;49.248;6.968;2023-04-05T05:26:59;1.80;93.80
27978;DHT22;15314;49.248;6.968;2023-04-05T05:27:59;1.80;93.40
27978;DHT22;15314;49.248;6.968;2023-04-05T05:29:00;1.90;93.10
27978;DHT22;15314;49.248;6.968;2023-04-05T05:30:02;2.10;92.60
27978;DHT22;15314;49.248;6.968;2023-04-05T05:31:03;2.20;92.40
27978;DHT22;15314;49.248;6.968;2023-04-05T05:32:04;2.20;92.00
27978;DHT22;15314;49.248;6.968;2023-04-05T05:33:04;2.30;92.30
27978;DHT22;15314;49.248;6.968;2023-04-05T05:34:05;2.40;92.00
27978;DHT22;15314;49.248;6.968;2023-04-05T05:35:06;2.40;91.60
27978;DHT22;15314;49.248;6.968;2023-04-05T05:36:07;2.50;91.40
27978;DHT22;15314;49.248;6.968;2023-04-05T05:37:08;2.50;91.10
27978;DHT22;15314;49.248;6.968;2023-04-05T05:38:09;2.70;90.90
27978;DHT22;15314;49.248;6.968;2023-04-05T05:39:09;2.90;90.70
27978;DHT22;15314;49.248;6.968;2023-04-05T05:40:11;3.20;90.10
27978;DHT22;15314;49.248;6.968;2023-04-05T05:41:12;3.70;88.70
27978;DHT22;15314;49.248;6.968;2023-04-05T05:42:13;4.10;87.50
27978;DHT22;15314;49.248;6.968;2023-04-05T05:43:13;4.40;85.40
27978;DHT22;15314;49.248;6.968;2023-04-05T05:44:15;4.30;84.80
27978;DHT22;15314;49.248;6.968;2023-04-05T05:45:15;4.10;84.70
27978;DHT22;15314;49.248;6.968;2023-04-05T05:46:16;4.00;85.40
27978;DHT22;15314;49.248;6.968;2023-04-05T05:47:18;3.90;86.20
27978;DHT22;15314;49.248;6.968;2023-04-05T05:48:19;4.10;86.50
27978;DHT22;15314;49.248;6.968;2023-04-05T05:49:20;4.40;86.20
27978;DHT22;15314;49.248;6.968;2023-04-05T05:50:21;4.90;85.00
27978;DHT22;15314;49.248;6.968;2023-04-05T05:51:21;5.50;83.20
27978;DHT22;15314;49.248;6.968;2023-04-05T05:52:22;5.70;81.20
27978;DHT22;15314;49.248;6.968;2023-04-05T05:53:23;6.00;79.70
27978;DHT22;15314;49.248;6.968;2023-04-05T05:54:24;6.00;79.30
27978;DHT22;15314;49.248;6.968;2023-04-05T05:55:25;6.00;79.10
27978;DHT22;15314;49.248;6.968;2023-04-05T05:56:26;5.70;80.10
27978;DHT22;15314;49.248;6.968;2023-04-05T05:57:27;5.40;80.30
27978;DHT22;15314;49.248;6.968;2023-04-05T05:58:27;5.00;80.90
27978;DHT22;15314;49.248;6.968;2023-04-05T05:59:28;4.80;82.50
27978;DHT22;15314;49.248;6.968;2023-04-05T06:00:29;4.60;82.60
27978;DHT22;15314;49.248;6.968;2023-04-05T06:01:29;4.40;83.10
27978;DHT22;15314;49.248;6.968;2023-04-05T06:02:30;4.40;84.00
27978;DHT22;15314;49.248;6.968;2023-04-05T06:03:32;4.40;83.80
27978;DHT22;15314;49.248;6.968;2023-04-05T06:04:33;4.50;83.40
27978;DHT22;15314;49.248;6.968;2023-04-05T06:05:33;4.50;83.30
27978;DHT22;15314;49.248;6.968;2023-04-05T06:06:34;4.50;83.50
27978;DHT22;15314;49.248;6.968;2023-04-05T06:07:36;4.50;83.60
27978;DHT22;15314;49.248;6.968;2023-04-05T06:08:37;4.40;84.10
27978;DHT22;15314;49.248;6.968;2023-04-05T06:09:37;4.30;83.80
27978;DHT22;15314;49.248;6.968;2023-04-05T06:10:38;4.40;84.60
27978;DHT22;15314;49.248;6.968;2023-04-05T06:11:39;4.50;84.70
27978;DHT22;15314;49.248;6.968;2023-04-05T06:12:39;4.60;83.90
27978;DHT22;15314;49.248;6.968;2023-04-05T06:13:40;4.60;83.90
27978;DHT22;15314;49.248;6.968;2023-04-05T06:14:41;4.70;83.50
27978;DHT22;15314;49.248;6.968;2023-04-05T06:15:42;4.80;83.40
27978;DHT22;15314;49.248;6.968;2023-04-05T06:16:43;5.00;83.10
27978;DHT22;15314;49.248;6.968;2023-04-05T06:17:43;5.10;82.60
27978;DHT22;15314;49.248;6.968;2023-04-05T06:18:44;5.20;82.70
27978;DHT22;15314;49.248;6.968;2023-04-05T06:19:45;5.30;81.70
27978;DHT22;15314;49.248;6.968;2023-04-05T06:20:46;5.40;81.40
27978;DHT22;15314;49.248;6.968;2023-04-05T06:21:46;5.50;81.00
27978;DHT22;15314;49.248;6.968;2023-04-05T06:22:47;5.60;79.90
27978;DHT22;15314;49.248;6.968;2023-04-05T06:23:48;5.60;79.80
27978;DHT22;15314;49.248;6.968;2023-04-05T06:24:49;5.60;80.50
27978;DHT22;15314;49.248;6.968;2023-04-05T06:25:50;5.80;79.90
27978;DHT22;15314;49.248;6.968;2023-04-05T06:26:50;5.90;79.30
27978;DHT22;15314;49.248;6.968;2023-04-05T06:27:51;6.30;78.90
27978;DHT22;15314;49.248;6.968;2023-04-05T06:28:52;6.60;78.10
27978;DHT22;15314;49.248;6.968;2023-04-05T06:29:53;6.80;78.00
27978;DHT22;15314;49.248;6.968;2023-04-05T06:30:57;7.10;76.80
27978;DHT22;15314;49.248;6.968;2023-04-05T06:31:58;7.40;76.20
27978;DHT22;15314;49.248;6.968;2023-04-05T06:32:59;7.80;75.20
27978;DHT22;15314;49.248;6.968;2023-04-05T06:34:00;8.60;74.00
27978;DHT22;15314;49.248;6.968;2023-04-05T06:35:01;9.90;71.40
27978;DHT22;15314;49.248;6.968;2023-04-05T06:36:05;10.60;69.80
27978;DHT22;15314;49.248;6.968;2023-04-05T06:37:06;11.20;67.20
27978;DHT22;15314;49.248;6.968;2023-04-05T06:38:06;11.80;65.80
27978;DHT22;15314;49.248;6.968;2023-04-05T06:39:07;12.60;64.10
27978;DHT22;15314;49.248;6.968;2023-04-05T06:40:08;13.40;64.00
27978;DHT22;15314;49.248;6.968;2023-04-05T06:41:09;13.80;62.20
27978;DHT22;15314;49.248;6.968;2023-04-05T06:42:09;14.90;60.30
27978;DHT22;15314;49.248;6.968;2023-04-05T06:43:10;15.70;57.60
27978;DHT22;15314;49.248;6.968;2023-04-05T06:44:11;16.20;56.80
27978;DHT22;15314;49.248;6.968;2023-04-05T06:45:12;16.70;54.60
27978;DHT22;15314;49.248;6.968;2023-04-05T06:46:12;17.00;54.00
27978;DHT22;15314;49.248;6.968;2023-04-05T06:47:13;17.20;54.30
27978;DHT22;15314;49.248;6.968;2023-04-05T06:48:14;17.60;53.20
27978;DHT22;15314;49.248;6.968;2023-04-05T06:49:15;17.80;52.50
27978;DHT22;15314;49.248;6.968;2023-04-05T06:50:15;17.80;52.20